createdAt,value
2023-08-22T00:14:39.902Z,81.22
2023-08-22T00:43:46.905Z,81.29
2023-08-22T01:12:50.610Z,86.53
2023-08-22T01:41:54.028Z,83.1
2023-08-22T02:10:43.945Z,88.31
2023-08-22T02:39:52.076Z,88.42
2023-08-22T03:09:06.238Z,88.97
2023-08-22T03:38:04.852Z,89.93
2023-08-22T04:07:03.726Z,95.9
2023-08-22T04:36:24.731Z,93.19
2023-08-22T05:05:36.217Z,86.39
2023-08-22T05:34:18.793Z,70.5
2023-08-22T06:02:43.335Z,69.04
2023-08-22T06:31:14.855Z,63.78
2023-08-22T06:59:42.443Z,59.28
2023-08-22T07:28:08.285Z,56.75
2023-08-22T07:56:26.360Z,57.99
2023-08-22T08:24:53.355Z,57.58
2023-08-22T08:53:17.865Z,58.24
2023-08-22T09:21:42.621Z,57.53
2023-08-22T09:50:07.011Z,56.78
2023-08-22T10:19:10.090Z,54.61
2023-08-22T10:48:14.937Z,55.73
2023-08-22T11:17:09.505Z,57.17
2023-08-22T11:46:14.335Z,56.07
2023-08-22T12:15:18.030Z,55.48
2023-08-22T12:44:20.711Z,54
2023-08-22T13:13:26.982Z,53.71
2023-08-22T13:42:33.542Z,54.56
2023-08-22T14:11:34.160Z,54.15
2023-08-22T14:40:45.689Z,54.69
2023-08-22T15:09:55.459Z,52.61
2023-08-22T15:39:00.142Z,52.45
2023-08-22T16:08:04.662Z,51.96
2023-08-22T16:37:11.984Z,51.31
2023-08-22T17:06:10.041Z,51.78
2023-08-22T17:35:17.948Z,52.84
2023-08-22T18:04:27.775Z,53.74
2023-08-22T18:33:30.825Z,55.46
2023-08-22T19:02:29.140Z,56.65
2023-08-22T19:31:32.031Z,58.88
2023-08-22T20:00:30.001Z,60.23
2023-08-22T20:29:36.207Z,61.62
2023-08-22T20:58:35.206Z,62.85
2023-08-22T21:27:38.460Z,63.63
2023-08-22T21:56:33.322Z,68.72
2023-08-22T22:25:29.472Z,71.54
2023-08-22T22:53:47.601Z,68.78
2023-08-22T23:22:11.794Z,70.56
2023-08-22T23:51:18.175Z,77.87
